createdAt,value
2022-11-26T00:01:52.040Z,4.32
2022-11-26T00:03:56.844Z,4.05
2022-11-26T00:05:58.509Z,3.13
2022-11-26T00:08:01.975Z,3.13
2022-11-26T00:10:05.742Z,3.45
2022-11-26T00:12:13.215Z,4.60
2022-11-26T00:14:16.405Z,5.93
2022-11-26T00:16:18.054Z,5.43
2022-11-26T00:18:20.127Z,5.95
2022-11-26T00:20:29.550Z,4.72
2022-11-26T00:22:35.183Z,3.90
2022-11-26T00:24:37.103Z,3.67
2022-11-26T00:26:39.582Z,3.88
2022-11-26T00:28:48.465Z,4.85
2022-11-26T00:30:50.105Z,4.22
2022-11-26T00:32:53.067Z,4.28
2022-11-26T00:34:54.822Z,4.38
2022-11-26T00:36:56.451Z,2.75
2022-11-26T00:39:07.120Z,4.88
2022-11-26T00:41:21.113Z,2.97
2022-11-26T00:43:23.006Z,2.70
2022-11-26T00:45:27.982Z,4.60
2022-11-26T00:47:29.615Z,3.58
2022-11-26T00:49:31.570Z,3.00
2022-11-26T00:51:33.370Z,3.30
2022-11-26T00:53:35.370Z,5.22
2022-11-26T00:55:39.718Z,3.53
2022-11-26T00:57:41.770Z,4.40
2022-11-26T00:59:43.385Z,4.20
2022-11-26T01:01:45.041Z,4.75
2022-11-26T01:03:47.289Z,3.08
2022-11-26T01:05:54.221Z,3.03
2022-11-26T01:07:59.993Z,3.20
2022-11-26T01:10:01.848Z,4.32
2022-11-26T01:12:03.612Z,5.47
2022-11-26T01:14:06.876Z,3.40
2022-11-26T01:16:23.938Z,3.35
2022-11-26T01:18:35.058Z,5.60
2022-11-26T01:20:36.774Z,3.00
2022-11-26T01:22:38.401Z,4.00
2022-11-26T01:24:40.280Z,3.20
2022-11-26T01:26:44.247Z,4.10
2022-11-26T01:28:46.183Z,2.63
2022-11-26T01:30:47.975Z,3.22
2022-11-26T01:32:50.393Z,3.60
2022-11-26T01:34:52.027Z,2.50
2022-11-26T01:36:53.625Z,2.90
2022-11-26T01:38:57.686Z,3.20
2022-11-26T01:41:31.390Z,2.60
2022-11-26T01:43:39.252Z,2.50
2022-11-26T01:45:40.971Z,3.80
2022-11-26T01:47:42.702Z,4.57
2022-11-26T01:50:22.525Z,2.45
2022-11-26T01:52:25.677Z,4.28
2022-11-26T01:54:27.409Z,2.17
2022-11-26T01:56:40.534Z,3.60
2022-11-26T01:58:58.274Z,3.42
2022-11-26T02:01:00.608Z,4.00
2022-11-26T02:03:03.402Z,3.47
2022-11-26T02:05:27.763Z,2.70
2022-11-26T02:07:29.701Z,2.42
2022-11-26T02:09:31.986Z,5.28
2022-11-26T02:11:33.758Z,2.55
2022-11-26T02:13:35.354Z,3.13
2022-11-26T02:16:05.592Z,2.53
2022-11-26T02:18:09.203Z,2.70
2022-11-26T02:20:48.242Z,3.03
2022-11-26T02:23:01.813Z,2.10
2022-11-26T02:25:15.478Z,3.65
2022-11-26T02:27:45.177Z,3.03
2022-11-26T02:30:06.181Z,2.65
2022-11-26T02:32:13.709Z,2.00
2022-11-26T02:34:22.739Z,2.22
2022-11-26T02:36:34.769Z,2.15
2022-11-26T02:38:38.290Z,3.35
2022-11-26T02:40:39.983Z,2.25
2022-11-26T02:42:42.010Z,3.47
2022-11-26T02:44:45.313Z,2.90
2022-11-26T02:46:51.654Z,2.25
2022-11-26T02:48:53.646Z,2.42
2022-11-26T02:51:05.510Z,5.05
2022-11-26T02:53:08.433Z,3.95
2022-11-26T02:55:13.281Z,2.42
2022-11-26T02:57:18.647Z,2.40
2022-11-26T02:59:20.641Z,1.88
2022-11-26T03:01:40.143Z,3.10
2022-11-26T03:03:47.587Z,2.63
2022-11-26T03:05:53.014Z,2.95
2022-11-26T03:07:55.703Z,2.35
2022-11-26T03:10:00.266Z,3.25
2022-11-26T03:12:02.029Z,4.63
2022-11-26T03:14:03.755Z,2.88
2022-11-26T03:16:05.594Z,3.15
2022-11-26T03:18:07.434Z,2.10
2022-11-26T03:20:09.303Z,2.60
2022-11-26T03:22:12.223Z,3.38
2022-11-26T03:24:13.952Z,2.30
2022-11-26T03:26:15.596Z,2.10
2022-11-26T03:28:17.346Z,1.75
2022-11-26T03:30:19.085Z,1.95
2022-11-26T03:32:20.685Z,2.17
2022-11-26T03:34:22.301Z,2.00
2022-11-26T03:36:23.933Z,2.17
2022-11-26T03:38:25.627Z,2.20
2022-11-26T03:40:27.333Z,2.38
2022-11-26T03:42:29.257Z,2.10
2022-11-26T03:44:30.926Z,2.20
2022-11-26T03:46:32.554Z,1.70
2022-11-26T03:48:34.266Z,1.83
2022-11-26T03:50:35.921Z,2.10
2022-11-26T03:52:37.605Z,1.98
2022-11-26T03:54:39.390Z,1.60
2022-11-26T03:56:41.221Z,2.05
2022-11-26T03:58:42.835Z,2.30
2022-11-26T04:00:44.434Z,1.77
2022-11-26T04:02:46.054Z,1.92
2022-11-26T04:04:47.801Z,1.77
2022-11-26T04:06:49.409Z,1.67
2022-11-26T04:08:51.020Z,2.20
2022-11-26T04:10:52.628Z,2.17
2022-11-26T04:12:54.289Z,2.25
2022-11-26T04:14:55.926Z,1.65
2022-11-26T04:16:57.621Z,1.55
2022-11-26T04:18:59.688Z,2.30
2022-11-26T04:21:01.620Z,1.95
2022-11-26T04:23:03.269Z,1.75
2022-11-26T04:25:05.309Z,2.80
2022-11-26T04:27:06.935Z,2.15
2022-11-26T04:29:08.580Z,1.83
2022-11-26T04:31:10.556Z,1.63
2022-11-26T04:33:12.254Z,2.03
2022-11-26T04:35:14.081Z,1.83
2022-11-26T04:37:15.762Z,2.50
2022-11-26T04:39:17.413Z,2.13
2022-11-26T04:41:19.104Z,2.70
2022-11-26T04:43:20.918Z,2.13
2022-11-26T04:45:22.554Z,2.83
2022-11-26T04:47:24.223Z,1.85
2022-11-26T04:49:25.926Z,1.40
2022-11-26T04:51:27.538Z,2.42
2022-11-26T04:53:29.146Z,1.63
2022-11-26T04:55:30.762Z,2.13
2022-11-26T04:57:32.434Z,3.95
2022-11-26T04:59:34.081Z,4.10
2022-11-26T05:01:35.806Z,6.32
2022-11-26T05:03:37.543Z,6.05
2022-11-26T05:05:39.543Z,19.98
2022-11-26T05:07:41.245Z,17.52
2022-11-26T05:09:43.427Z,5.53
2022-11-26T05:11:45.074Z,5.55
2022-11-26T05:13:46.714Z,9.18
2022-11-26T05:15:48.477Z,10.93
2022-11-26T05:17:50.189Z,20.98
2022-11-26T05:19:51.869Z,5.88
2022-11-26T05:21:53.502Z,6.35
2022-11-26T05:23:55.115Z,12.20
2022-11-26T05:25:56.719Z,6.03
2022-11-26T05:27:58.338Z,3.75
2022-11-26T05:29:59.998Z,8.73
2022-11-26T05:32:01.777Z,4.65
2022-11-26T05:34:03.504Z,4.50
2022-11-26T05:36:05.416Z,7.75
2022-11-26T05:38:07.169Z,3.47
2022-11-26T05:40:09.789Z,6.03
2022-11-26T05:42:11.431Z,4.90
2022-11-26T05:44:13.595Z,8.63
2022-11-26T05:46:17.785Z,3.25
2022-11-26T05:48:19.480Z,4.97
2022-11-26T05:50:21.166Z,12.40
2022-11-26T05:52:23.706Z,6.72
2022-11-26T05:54:25.391Z,10.80
2022-11-26T05:56:27.053Z,13.20
2022-11-26T05:58:28.648Z,12.20
2022-11-26T06:00:30.468Z,7.88
2022-11-26T06:02:32.279Z,5.50
2022-11-26T06:04:34.043Z,2.60
2022-11-26T06:06:35.736Z,3.50
2022-11-26T06:08:38.371Z,7.03
2022-11-26T06:10:42.619Z,6.85
2022-11-26T06:12:44.286Z,7.30
2022-11-26T06:14:46.188Z,10.32
2022-11-26T06:16:48.362Z,2.47
2022-11-26T06:18:50.027Z,9.23
2022-11-26T06:20:52.764Z,5.85
2022-11-26T06:22:54.410Z,6.15
2022-11-26T06:24:56.074Z,9.77
2022-11-26T06:26:57.713Z,6.93
2022-11-26T06:28:59.349Z,7.20
2022-11-26T06:31:01.032Z,6.47
2022-11-26T06:33:02.742Z,4.45
2022-11-26T06:35:05.257Z,3.53
2022-11-26T06:37:06.948Z,4.85
2022-11-26T06:39:10.288Z,1.80
2022-11-26T06:41:11.970Z,3.03
2022-11-26T06:43:13.614Z,6.88
2022-11-26T06:45:15.314Z,5.57
2022-11-26T06:47:17.274Z,8.07
2022-11-26T06:49:18.964Z,6.55
2022-11-26T06:51:21.844Z,9.93
2022-11-26T06:53:23.809Z,2.70
2022-11-26T06:55:25.438Z,4.28
2022-11-26T06:57:27.065Z,4.43
2022-11-26T06:59:28.809Z,6.47
2022-11-26T07:01:30.801Z,5.40
2022-11-26T07:03:33.572Z,5.18
2022-11-26T07:05:36.002Z,6.47
2022-11-26T07:07:38.500Z,5.20
2022-11-26T07:09:41.086Z,17.15
2022-11-26T07:11:43.058Z,16.73
2022-11-26T07:13:44.781Z,13.18
2022-11-26T07:15:46.563Z,14.45
2022-11-26T07:17:48.229Z,17.17
2022-11-26T07:19:49.821Z,14.32
2022-11-26T07:21:51.438Z,22.60
2022-11-26T07:23:53.606Z,25.30
2022-11-26T07:25:57.972Z,18.30
2022-11-26T07:27:59.596Z,17.65
2022-11-26T07:30:01.211Z,15.13
2022-11-26T07:32:02.907Z,21.25
2022-11-26T07:34:04.791Z,11.75
2022-11-26T07:36:09.406Z,16.45
2022-11-26T07:38:11.091Z,27.08
2022-11-26T07:40:13.233Z,11.73
2022-11-26T07:42:14.927Z,10.75
2022-11-26T07:44:16.583Z,12.07
2022-11-26T07:46:20.843Z,16.08
2022-11-26T07:48:22.508Z,10.70
2022-11-26T07:50:24.111Z,12.70
2022-11-26T07:52:25.792Z,13.30
2022-11-26T07:54:27.423Z,11.27
2022-11-26T07:56:29.019Z,11.68
2022-11-26T07:58:30.653Z,11.07
2022-11-26T08:00:32.423Z,12.18
2022-11-26T08:02:34.109Z,8.60
2022-11-26T08:04:35.928Z,9.80
2022-11-26T08:06:37.738Z,9.27
2022-11-26T08:08:39.772Z,13.80
2022-11-26T08:10:41.371Z,9.35
2022-11-26T08:12:43.009Z,13.88
2022-11-26T08:14:44.598Z,10.77
2022-11-26T08:16:46.310Z,14.85
2022-11-26T08:18:48.075Z,13.40
2022-11-26T08:20:57.098Z,15.85
2022-11-26T08:22:58.742Z,10.13
2022-11-26T08:25:00.548Z,18.30
2022-11-26T08:27:02.229Z,13.13
2022-11-26T08:29:03.886Z,21.60
2022-11-26T08:31:09.562Z,14.13
2022-11-26T08:33:11.486Z,11.88
2022-11-26T08:35:13.215Z,9.73
2022-11-26T08:37:14.866Z,22.65
2022-11-26T08:39:18.064Z,10.70
2022-11-26T08:41:19.746Z,22.40
2022-11-26T08:43:30.818Z,8.45
2022-11-26T08:45:41.374Z,11.13
2022-11-26T08:47:43.018Z,15.63
2022-11-26T08:49:44.633Z,12.60
2022-11-26T08:51:46.371Z,15.93
2022-11-26T08:53:48.000Z,10.73
2022-11-26T08:56:00.236Z,14.13
2022-11-26T08:58:02.265Z,21.75
2022-11-26T09:00:05.334Z,12.40
2022-11-26T09:02:08.654Z,6.97
2022-11-26T09:04:11.600Z,10.93
2022-11-26T09:06:13.274Z,10.52
2022-11-26T09:08:14.942Z,23.42
2022-11-26T09:10:16.734Z,21.30
2022-11-26T09:12:18.443Z,15.98
2022-11-26T09:14:24.717Z,15.23
2022-11-26T09:16:26.797Z,17.80
2022-11-26T09:18:28.507Z,12.25
2022-11-26T09:20:30.325Z,19.85
2022-11-26T09:22:32.001Z,19.35
2022-11-26T09:24:33.743Z,15.27
2022-11-26T09:26:35.956Z,28.50
2022-11-26T09:28:37.737Z,15.65
2022-11-26T09:30:39.454Z,20.55
2022-11-26T09:32:41.140Z,27.25
2022-11-26T09:34:42.912Z,18.55
2022-11-26T09:36:44.918Z,23.00
2022-11-26T09:38:46.620Z,16.98
2022-11-26T09:41:01.017Z,13.45
2022-11-26T09:43:24.727Z,16.75
2022-11-26T09:45:46.217Z,14.98
2022-11-26T09:47:51.905Z,10.95
2022-11-26T09:50:12.414Z,13.05
2022-11-26T09:52:18.153Z,13.27
2022-11-26T09:54:23.339Z,11.73
2022-11-26T09:56:26.774Z,15.50
2022-11-26T09:58:36.632Z,8.70
2022-11-26T10:00:44.217Z,10.02
2022-11-26T10:02:45.960Z,9.55
2022-11-26T10:04:48.490Z,10.82
2022-11-26T10:07:23.650Z,13.80
2022-11-26T10:09:52.986Z,12.13
2022-11-26T10:12:24.946Z,7.22
2022-11-26T10:14:39.350Z,5.90
2022-11-26T10:16:57.551Z,7.32
2022-11-26T10:19:12.702Z,7.40
2022-11-26T10:21:58.049Z,8.77
2022-11-26T10:24:12.180Z,7.75
2022-11-26T10:26:30.073Z,7.07
2022-11-26T10:28:47.937Z,10.35
2022-11-26T10:31:02.357Z,5.28
2022-11-26T10:33:07.183Z,10.15
2022-11-26T10:35:18.633Z,8.95
2022-11-26T10:37:22.555Z,4.75
2022-11-26T10:39:24.191Z,4.63
2022-11-26T10:41:30.162Z,4.32
2022-11-26T10:43:32.415Z,4.03
2022-11-26T10:45:48.126Z,6.97
2022-11-26T10:47:49.842Z,5.40
2022-11-26T10:49:54.300Z,6.70
2022-11-26T10:52:04.346Z,6.22
2022-11-26T10:54:07.469Z,9.27
2022-11-26T10:56:17.930Z,8.90
2022-11-26T10:58:23.514Z,4.70
2022-11-26T11:00:42.886Z,6.18
2022-11-26T11:02:49.193Z,8.52
2022-11-26T11:04:57.761Z,7.30
2022-11-26T11:06:59.699Z,14.27
2022-11-26T11:09:13.244Z,4.65
2022-11-26T11:11:29.633Z,18.77
2022-11-26T11:13:43.254Z,11.40
2022-11-26T11:15:45.068Z,11.27
2022-11-26T11:17:54.683Z,10.80
2022-11-26T11:19:59.243Z,13.18
2022-11-26T11:22:01.055Z,9.13
2022-11-26T11:24:32.301Z,15.45
2022-11-26T11:26:43.534Z,14.30
2022-11-26T11:31:14.287Z,34.13
2022-11-26T11:33:25.398Z,33.75
2022-11-26T11:37:32.061Z,31.75
2022-11-26T11:39:35.455Z,34.10
2022-11-26T11:41:46.449Z,35.15
2022-11-26T11:43:48.618Z,27.25
2022-11-26T11:46:12.465Z,31.80
2022-11-26T11:48:29.940Z,35.97
2022-11-26T11:50:41.943Z,30.83
2022-11-26T11:53:17.866Z,31.05
2022-11-26T11:55:32.038Z,26.30
2022-11-26T11:57:52.885Z,28.45
2022-11-26T12:00:15.279Z,27.90
2022-11-26T12:02:32.069Z,27.52
2022-11-26T12:04:46.930Z,25.23
2022-11-26T12:07:10.263Z,24.77
2022-11-26T12:09:18.626Z,25.17
2022-11-26T12:11:39.317Z,25.05
2022-11-26T12:13:51.975Z,28.25
2022-11-26T12:16:03.069Z,28.98
2022-11-26T12:18:40.023Z,25.10
2022-11-26T12:20:59.163Z,24.85
2022-11-26T12:23:21.220Z,25.92
2022-11-26T12:25:37.328Z,24.85
2022-11-26T12:27:51.278Z,27.38
2022-11-26T12:30:13.255Z,22.95
2022-11-26T12:32:27.925Z,26.33
2022-11-26T12:34:34.798Z,21.58
2022-11-26T12:36:49.187Z,22.70
2022-11-26T12:38:59.155Z,28.05
2022-11-26T12:41:10.615Z,22.90
2022-11-26T12:43:25.926Z,25.75
2022-11-26T12:45:35.054Z,29.55
2022-11-26T12:47:46.615Z,26.65
2022-11-26T12:50:25.586Z,22.45
2022-11-26T12:53:02.594Z,28.67
2022-11-26T12:55:20.710Z,35.58
2022-11-26T12:57:39.823Z,46.92
2022-11-26T13:00:06.640Z,39.40
2022-11-26T13:02:29.716Z,28.70
2022-11-26T13:04:38.590Z,26.38
2022-11-26T13:07:01.269Z,19.25
2022-11-26T13:09:37.108Z,25.17
2022-11-26T13:12:04.559Z,17.85
2022-11-26T13:14:14.355Z,22.88
2022-11-26T13:16:25.689Z,18.50
2022-11-26T13:18:37.827Z,14.57
2022-11-26T13:20:45.258Z,14.15
2022-11-26T13:23:07.643Z,17.77
2022-11-26T13:25:28.211Z,12.10
2022-11-26T13:28:15.323Z,18.73
2022-11-26T13:30:34.635Z,15.98
2022-11-26T13:32:54.346Z,15.32
2022-11-26T13:35:14.679Z,11.75
2022-11-26T13:37:55.315Z,16.10
2022-11-26T13:40:22.443Z,12.97
2022-11-26T13:42:36.082Z,12.93
2022-11-26T13:44:54.750Z,9.48
2022-11-26T13:47:24.968Z,11.05
2022-11-26T13:49:29.378Z,10.50
2022-11-26T13:51:47.096Z,13.48
2022-11-26T13:53:55.543Z,11.63
2022-11-26T13:56:04.182Z,8.43
2022-11-26T13:58:12.715Z,10.43
2022-11-26T14:00:35.506Z,7.85
2022-11-26T14:02:42.339Z,16.73
2022-11-26T14:04:47.301Z,10.48
2022-11-26T14:07:12.242Z,12.52
2022-11-26T14:09:42.589Z,10.15
2022-11-26T14:11:50.090Z,8.13
2022-11-26T14:14:23.903Z,8.27
2022-11-26T14:17:05.675Z,7.03
2022-11-26T14:19:07.507Z,10.15
2022-11-26T14:21:12.850Z,7.25
2022-11-26T14:23:45.652Z,7.85
2022-11-26T14:25:47.307Z,7.43
2022-11-26T14:27:54.378Z,7.78
2022-11-26T14:30:07.205Z,9.05
2022-11-26T14:32:14.821Z,6.28
2022-11-26T14:34:39.410Z,7.72
2022-11-26T14:37:02.214Z,12.13
2022-11-26T14:39:15.030Z,5.63
2022-11-26T14:41:16.734Z,7.10
2022-11-26T14:43:20.031Z,5.38
2022-11-26T14:45:24.087Z,6.40
2022-11-26T14:47:26.325Z,5.00
2022-11-26T14:49:36.948Z,5.28
2022-11-26T14:51:38.805Z,7.30
2022-11-26T14:53:47.762Z,4.90
2022-11-26T14:55:50.391Z,6.32
2022-11-26T14:58:08.931Z,6.63
2022-11-26T15:00:14.307Z,5.05
2022-11-26T15:02:24.277Z,7.43
2022-11-26T15:04:34.436Z,3.40
2022-11-26T15:06:42.891Z,7.25
2022-11-26T15:08:44.573Z,6.75
2022-11-26T15:10:53.922Z,12.05
2022-11-26T15:12:58.773Z,9.20
2022-11-26T15:15:01.832Z,4.53
2022-11-26T15:17:04.987Z,6.55
2022-11-26T15:19:07.193Z,5.22
2022-11-26T15:21:17.082Z,4.68
2022-11-26T15:23:21.295Z,9.57
2022-11-26T15:25:33.856Z,6.00
2022-11-26T15:27:47.836Z,5.40
2022-11-26T15:29:49.687Z,5.68
2022-11-26T15:31:51.332Z,5.10
2022-11-26T15:33:53.680Z,5.78
2022-11-26T15:35:58.367Z,4.18
2022-11-26T15:38:00.415Z,4.00
2022-11-26T15:40:09.766Z,4.53
2022-11-26T15:42:40.560Z,5.22
2022-11-26T15:44:42.952Z,6.03
2022-11-26T15:46:49.775Z,5.43
2022-11-26T15:49:00.679Z,6.75
2022-11-26T15:51:04.267Z,4.90
2022-11-26T15:53:17.950Z,5.88
2022-11-26T15:55:26.053Z,4.72
2022-11-26T15:57:29.147Z,4.60
2022-11-26T15:59:39.868Z,5.00
2022-11-26T16:01:45.243Z,4.97
2022-11-26T16:03:49.626Z,5.15
2022-11-26T16:05:56.037Z,5.55
2022-11-26T16:08:04.191Z,5.45
2022-11-26T16:10:16.871Z,4.70
2022-11-26T16:12:24.762Z,4.20
2022-11-26T16:14:37.700Z,4.45
2022-11-26T16:16:40.119Z,3.38
2022-11-26T16:18:50.577Z,4.88
2022-11-26T16:21:02.986Z,5.35
2022-11-26T16:23:04.620Z,4.43
2022-11-26T16:25:18.978Z,7.18
2022-11-26T16:27:23.229Z,4.07
2022-11-26T16:29:25.922Z,5.10
2022-11-26T16:31:27.588Z,6.05
2022-11-26T16:33:30.337Z,5.20
2022-11-26T16:35:47.851Z,3.55
2022-11-26T16:37:49.488Z,5.13
2022-11-26T16:39:53.942Z,5.22
2022-11-26T16:41:55.586Z,4.93
2022-11-26T16:43:58.597Z,4.30
2022-11-26T16:46:00.498Z,3.95
2022-11-26T16:48:02.205Z,4.53
2022-11-26T16:50:04.374Z,3.33
2022-11-26T16:52:11.953Z,4.07
2022-11-26T16:54:15.722Z,4.25
2022-11-26T16:56:26.682Z,4.43
2022-11-26T16:58:32.084Z,2.80
2022-11-26T17:00:35.641Z,3.47
2022-11-26T17:02:37.381Z,6.60
2022-11-26T17:04:39.086Z,5.68
2022-11-26T17:06:41.477Z,5.47
2022-11-26T17:08:49.236Z,4.70
2022-11-26T17:10:51.667Z,5.45
2022-11-26T17:12:53.314Z,4.80
2022-11-26T17:14:54.980Z,3.80
2022-11-26T17:16:57.395Z,4.38
2022-11-26T17:18:59.106Z,3.40
2022-11-26T17:21:00.793Z,3.92
2022-11-26T17:23:02.442Z,5.20
2022-11-26T17:25:04.396Z,4.20
2022-11-26T17:27:14.350Z,5.55
2022-11-26T17:29:15.979Z,3.13
2022-11-26T17:31:17.760Z,3.05
2022-11-26T17:33:19.530Z,6.70
2022-11-26T17:35:21.182Z,3.65
2022-11-26T17:37:28.365Z,3.60
2022-11-26T17:39:29.987Z,3.65
2022-11-26T17:41:31.651Z,2.50
2022-11-26T17:43:33.264Z,2.85
2022-11-26T17:45:34.910Z,4.22
2022-11-26T17:47:36.514Z,3.65
2022-11-26T17:49:38.296Z,3.22
2022-11-26T17:51:42.571Z,4.07
2022-11-26T17:53:45.013Z,4.47
2022-11-26T17:55:48.064Z,6.57
2022-11-26T17:57:50.317Z,4.00
2022-11-26T17:59:51.928Z,3.28
2022-11-26T18:01:53.711Z,3.05
2022-11-26T18:03:55.670Z,3.20
2022-11-26T18:05:57.319Z,3.28
2022-11-26T18:07:59.236Z,3.30
2022-11-26T18:10:01.008Z,5.95
2022-11-26T18:12:03.751Z,3.92
2022-11-26T18:14:05.362Z,3.25
2022-11-26T18:16:07.074Z,2.83
2022-11-26T18:18:08.890Z,2.70
2022-11-26T18:20:10.904Z,3.38
2022-11-26T18:22:18.771Z,4.88
2022-11-26T18:24:21.035Z,3.45
2022-11-26T18:26:22.762Z,3.22
2022-11-26T18:28:24.397Z,3.65
2022-11-26T18:30:26.198Z,3.40
2022-11-26T18:32:27.822Z,3.45
2022-11-26T18:34:29.435Z,3.80
2022-11-26T18:36:31.073Z,3.75
2022-11-26T18:38:34.920Z,4.72
2022-11-26T18:40:36.916Z,4.10
2022-11-26T18:42:38.908Z,3.28
2022-11-26T18:44:40.901Z,3.13
2022-11-26T18:46:42.514Z,6.55
2022-11-26T18:48:47.171Z,2.80
2022-11-26T18:50:58.468Z,4.05
2022-11-26T18:53:00.174Z,3.28
2022-11-26T18:55:04.722Z,2.92
2022-11-26T18:57:06.462Z,3.10
2022-11-26T18:59:09.670Z,5.53
2022-11-26T19:01:17.091Z,4.32
2022-11-26T19:03:18.787Z,3.35
2022-11-26T19:05:20.438Z,2.85
2022-11-26T19:07:22.271Z,2.20
2022-11-26T19:09:24.038Z,2.58
2022-11-26T19:11:27.730Z,3.05
2022-11-26T19:13:29.389Z,3.75
2022-11-26T19:15:31.615Z,2.80
2022-11-26T19:17:33.586Z,2.28
2022-11-26T19:19:35.329Z,2.63
2022-11-26T19:21:37.266Z,2.60
2022-11-26T19:23:38.977Z,3.17
2022-11-26T19:25:40.652Z,3.10
2022-11-26T19:27:43.673Z,2.78
2022-11-26T19:29:45.305Z,3.85
2022-11-26T19:31:46.993Z,3.88
2022-11-26T19:33:57.861Z,2.70
2022-11-26T19:36:07.282Z,2.45
2022-11-26T19:38:08.963Z,4.18
2022-11-26T19:40:10.950Z,3.13
2022-11-26T19:42:12.888Z,5.22
2022-11-26T19:44:14.506Z,2.75
2022-11-26T19:46:19.110Z,3.83
2022-11-26T19:48:20.722Z,4.90
2022-11-26T19:50:22.399Z,3.80
2022-11-26T19:52:24.153Z,2.30
2022-11-26T19:54:26.051Z,3.65
2022-11-26T19:56:30.663Z,3.83
2022-11-26T19:58:33.842Z,2.60
2022-11-26T20:00:35.467Z,2.30
2022-11-26T20:02:37.971Z,2.33
2022-11-26T20:04:39.773Z,3.00
2022-11-26T20:06:42.057Z,2.03
2022-11-26T20:08:44.127Z,2.25
2022-11-26T20:10:49.897Z,2.50
2022-11-26T20:12:51.758Z,2.38
2022-11-26T20:14:53.355Z,2.47
2022-11-26T20:17:00.547Z,3.35
2022-11-26T20:19:03.014Z,3.45
2022-11-26T20:21:08.248Z,4.10
2022-11-26T20:23:10.128Z,2.28
2022-11-26T20:25:15.317Z,3.80
2022-11-26T20:27:16.930Z,3.30
2022-11-26T20:29:20.019Z,4.07
2022-11-26T20:31:24.153Z,3.90
2022-11-26T20:33:26.207Z,2.92
2022-11-26T20:35:27.823Z,2.78
2022-11-26T20:37:29.530Z,2.90
2022-11-26T20:39:31.189Z,2.92
2022-11-26T20:41:33.004Z,4.40
2022-11-26T20:43:34.974Z,3.15
2022-11-26T20:45:37.237Z,2.60
2022-11-26T20:47:39.265Z,3.88
2022-11-26T20:49:43.223Z,3.40
2022-11-26T20:51:45.052Z,3.75
2022-11-26T20:53:46.751Z,3.42
2022-11-26T20:55:53.266Z,2.80
2022-11-26T20:57:54.941Z,2.95
2022-11-26T20:59:56.714Z,3.90
2022-11-26T21:01:58.483Z,3.80
2022-11-26T21:04:01.004Z,3.08
2022-11-26T21:06:03.207Z,5.65
2022-11-26T21:08:05.264Z,3.15
2022-11-26T21:10:08.473Z,4.38
2022-11-26T21:12:10.106Z,2.97
2022-11-26T21:14:15.012Z,5.15
2022-11-26T21:16:17.131Z,3.95
2022-11-26T21:18:18.874Z,4.22
2022-11-26T21:20:20.710Z,3.50
2022-11-26T21:22:22.362Z,3.08
2022-11-26T21:24:24.439Z,4.78
2022-11-26T21:26:26.615Z,4.63
2022-11-26T21:28:28.245Z,4.22
2022-11-26T21:30:29.921Z,4.43
2022-11-26T21:32:31.617Z,4.15
2022-11-26T21:34:33.566Z,4.22
2022-11-26T21:36:36.268Z,3.47
2022-11-26T21:38:38.645Z,4.72
2022-11-26T21:40:40.307Z,4.13
2022-11-26T21:42:42.007Z,4.32
2022-11-26T21:44:43.617Z,3.92
2022-11-26T21:46:45.371Z,3.58
2022-11-26T21:48:47.573Z,4.07
2022-11-26T21:50:49.280Z,4.32
2022-11-26T21:52:50.901Z,5.80
2022-11-26T21:54:52.495Z,5.18
2022-11-26T21:56:54.173Z,5.72
2022-11-26T21:58:57.336Z,4.55
2022-11-26T22:00:59.061Z,5.10
2022-11-26T22:03:00.749Z,4.97
2022-11-26T22:05:02.458Z,4.72
2022-11-26T22:07:04.811Z,4.70
2022-11-26T22:09:06.973Z,4.53
2022-11-26T22:11:19.182Z,5.00
2022-11-26T22:13:20.898Z,4.13
2022-11-26T22:15:22.549Z,6.25
2022-11-26T22:17:24.198Z,4.53
2022-11-26T22:19:25.997Z,5.38
2022-11-26T22:21:30.786Z,4.82
2022-11-26T22:23:32.795Z,4.45
2022-11-26T22:25:34.740Z,4.38
2022-11-26T22:27:36.356Z,5.82
2022-11-26T22:29:38.325Z,5.97
2022-11-26T22:31:40.315Z,4.32
2022-11-26T22:33:42.062Z,5.25
2022-11-26T22:35:43.698Z,5.10
2022-11-26T22:37:45.291Z,4.40
2022-11-26T22:39:51.152Z,5.40
2022-11-26T22:41:55.350Z,4.80
2022-11-26T22:43:59.472Z,4.78
2022-11-26T22:46:13.090Z,4.90
2022-11-26T22:48:14.819Z,4.80
2022-11-26T22:50:17.643Z,4.50
2022-11-26T22:52:20.175Z,5.57
2022-11-26T22:54:22.123Z,4.57
2022-11-26T22:56:24.362Z,4.15
2022-11-26T22:58:27.686Z,5.45
2022-11-26T23:00:48.108Z,3.95
2022-11-26T23:02:49.807Z,4.67
2022-11-26T23:04:52.494Z,4.38
2022-11-26T23:06:54.136Z,4.85
2022-11-26T23:08:57.432Z,5.03
2022-11-26T23:10:59.348Z,4.53
2022-11-26T23:13:01.002Z,5.43
2022-11-26T23:15:02.657Z,7.72
2022-11-26T23:17:04.317Z,6.18
2022-11-26T23:19:06.214Z,4.38
2022-11-26T23:21:10.980Z,4.57
2022-11-26T23:23:13.015Z,5.13
2022-11-26T23:25:14.656Z,4.65
2022-11-26T23:27:16.327Z,5.20
2022-11-26T23:29:17.978Z,5.13
2022-11-26T23:31:22.038Z,4.18
2022-11-26T23:33:23.678Z,4.60
2022-11-26T23:35:25.327Z,5.47
2022-11-26T23:37:26.971Z,3.70
2022-11-26T23:39:28.650Z,5.00
2022-11-26T23:41:30.653Z,5.03
2022-11-26T23:43:33.830Z,4.38
2022-11-26T23:45:35.477Z,3.92
2022-11-26T23:47:37.186Z,4.47
2022-11-26T23:49:39.001Z,5.93
2022-11-26T23:51:40.769Z,4.40
2022-11-26T23:53:44.418Z,4.43
2022-11-26T23:55:46.070Z,3.70
2022-11-26T23:57:47.712Z,4.10
2022-11-26T23:59:49.305Z,4.40
